Idamay, WV (26576)

6:39 PM EST on February 28, 2015 (GMT -0500)
Pleasant Valley Station | Change Station
CLOSE
Current Station
Personal Weather Station
Location: Fairmont, WV
Elevation: 1047 ft
Nearby Weather Stations

Elev 1047 ft 39.44 °N, 80.17 °W | Updated 8 minutes ago

Overcast
Overcast
29.5 °F
Feels Like 30 °F
N
0.0
Wind Variable Wind from North
Gusts 0.0 mph

Today
High -- | Low -- °F
--% Chance of Precip.
Yesterday
High -- | Low -- °F
Precip. -- in
6:55 AM 6:11 PM
Waxing Gibbous, 81% visible
Pressure 30.62 in
Visibility 10.0 miles
Clouds Mostly Cloudy 8000 ft
Windchill 30 °F
Dew Point 12 °F
Humidity 49%
Rainfall 0.00 in
Snow Depth Not available.
UV 0 out of 12
Pollen .50 out of 12
Air Quality Not available.
Flu Activity Not available.
METAR KCKB 282253Z COR 02003KT 10SM BKN080 M01/M17 A3058 RMK AO2 SLP369 T10111167

More Conditions Fewer Conditions

Pressure 30.62 in
Visibility 10.0 miles
Clouds Mostly Cloudy 8000 ft
Windchill 30 °F
Dew Point 12 °F
Humidity 49%
Rainfall 0.00 in
Snow Depth Not available.
UV 0 out of 12
Pollen .50 out of 12
Air Quality Not available.
Flu Activity Not available.
METAR KCKB 282253Z COR 02003KT 10SM BKN080 M01/M17 A3058 RMK AO2 SLP369 T10111167

More Conditions Fewer Conditions

10-Day Weather Forecast

Almanac

Astronomy

Feb. 28, 2015 Rise Set
Actual Time
Civil Twilight
Nautical Twilight
Astronomical Twilight
Moon
Length of Visible Light
Length of Day
Tomorrow will be .
, % of the Moon is Illuminated

Today's Extremes

State Highs State Lows

Community

WunderPhotos

Upload Photos

1,801,176 photos uploaded!

WunderBlogs® & News

Nearby

Air Quality

  Air Quality AQ Index Pollutant
Not available.

Snow Depth

Station Depth Elevation

Earthquake Activity

City Distance Mag. Time & Date
Minimum magnitude displayed is 2.5.

Coastal Water Temperatures

Place Temperature

Nearby Weather Stations